Time;durP1;ratioP1;P1;durP2;ratioP2;P2;SDS_P1;SDS_P2;PMS_P1;PMS_P2;Temp;Humidity;BMP_temperature;BMP_pressure;BME280_temperature;BME280_humidity;BME280_pressure;Samples;Min_cycle;Max_cycle;Signal;HPM_P1;HPM_P2
2022/04/24 00:01:56;;;;;;;16.83;10.07;;;11.00;88.80;;;;;;5035919;28;20363;-62
2022/04/24 00:04:24;;;;;;;16.85;10.20;;;11.00;89.40;;;;;;5036440;28;20021;-62
2022/04/24 00:06:52;;;;;;;18.52;10.15;;;11.00;89.40;;;;;;5036267;28;20059;-61
2022/04/24 00:09:18;;;;;;;17.15;9.98;;;11.00;89.30;;;;;;5036463;28;20045;-65
2022/04/24 00:11:43;;;;;;;17.75;10.43;;;11.10;89.60;;;;;;5036327;28;20033;-61
2022/04/24 00:14:10;;;;;;;19.88;10.48;;;11.00;89.70;;;;;;5036501;28;20056;-61
2022/04/24 00:16:39;;;;;;;16.98;10.65;;;10.90;90.10;;;;;;5036399;28;20029;-62
2022/04/24 00:19:06;;;;;;;18.15;10.63;;;11.00;90.10;;;;;;5036518;28;20370;-62
2022/04/24 00:21:32;;;;;;;17.55;10.32;;;10.90;90.20;;;;;;5036623;28;20537;-62
2022/04/24 00:23:58;;;;;;;17.55;10.43;;;10.90;90.50;;;;;;5036884;28;20029;-62
2022/04/24 00:26:24;;;;;;;24.13;14.73;;;10.80;90.80;;;;;;5035796;28;20037;-61
2022/04/24 00:28:49;;;;;;;27.95;18.08;;;10.80;91.10;;;;;;5036099;28;20033;-62
2022/04/24 00:31:15;;;;;;;19.40;11.10;;;10.70;91.50;;;;;;5036928;28;20036;-62
2022/04/24 00:33:41;;;;;;;19.20;11.30;;;10.70;91.40;;;;;;5034969;28;20120;-61
2022/04/24 00:36:07;;;;;;;17.90;10.43;;;10.60;91.60;;;;;;5035439;28;20058;-62
2022/04/24 00:38:33;;;;;;;18.20;10.88;;;10.60;92.00;;;;;;5036123;28;20030;-63
2022/04/24 00:40:58;;;;;;;17.80;10.93;;;10.50;92.00;;;;;;5035456;28;20067;-62
2022/04/24 00:43:24;;;;;;;18.98;10.98;;;10.50;92.50;;;;;;5036575;28;20025;-62
2022/04/24 00:46:15;;;;;;;17.00;10.52;;;10.50;92.80;;;;;;5035310;28;20053;-63
2022/04/24 00:48:42;;;;;;;19.75;11.32;;;10.40;93.20;;;;;;5035417;28;20032;-61
2022/04/24 00:51:11;;;;;;;17.77;10.70;;;10.40;93.40;;;;;;5035735;28;20083;-64
2022/04/24 00:53:37;;;;;;;18.00;11.07;;;10.30;93.90;;;;;;5035338;28;20026;-61
2022/04/24 00:56:05;;;;;;;18.23;11.55;;;10.30;94.50;;;;;;5034687;28;20041;-59
2022/04/24 00:58:32;;;;;;;18.98;12.02;;;10.20;94.70;;;;;;5035698;28;20021;-61
2022/04/24 01:00:57;;;;;;;20.70;11.05;;;10.20;95.00;;;;;;5034560;28;20053;-59
2022/04/24 01:03:23;;;;;;;18.80;11.23;;;10.10;95.50;;;;;;5035033;28;20033;-60
2022/04/24 01:05:49;;;;;;;19.23;11.07;;;10.10;96.00;;;;;;5035319;28;20034;-63
2022/04/24 01:08:15;;;;;;;19.17;10.57;;;10.10;96.30;;;;;;5035283;28;20025;-60
2022/04/24 01:10:41;;;;;;;20.42;12.32;;;10.00;96.70;;;;;;5034532;28;20179;-61
2022/04/24 01:13:07;;;;;;;26.50;16.75;;;10.00;97.20;;;;;;5087676;22;20036;-61
2022/04/24 01:15:34;;;;;;;21.20;13.07;;;9.90;98.30;;;;;;5072805;28;20012;-60
2022/04/24 01:18:01;;;;;;;18.55;11.38;;;9.80;98.80;;;;;;5071950;28;20025;-59
2022/04/24 01:20:27;;;;;;;20.80;11.45;;;9.80;99.40;;;;;;5072798;28;20032;-61
2022/04/24 01:22:53;;;;;;;18.50;10.80;;;9.80;99.80;;;;;;5073178;28;20082;-59
2022/04/24 01:25:19;;;;;;;21.30;11.30;;;9.70;99.90;;;;;;5073116;28;20031;-57
2022/04/24 01:27:45;;;;;;;18.30;11.20;;;9.80;99.90;;;;;;5073045;28;20048;-57
2022/04/24 01:30:11;;;;;;;18.80;10.75;;;9.70;99.90;;;;;;5072796;28;20119;-60
2022/04/24 01:32:38;;;;;;;18.40;11.23;;;9.60;99.90;;;;;;5071490;28;20035;-59
2022/04/24 01:35:05;;;;;;;17.87;10.77;;;9.60;99.90;;;;;;5072847;28;20393;-58
2022/04/24 01:37:31;;;;;;;17.45;10.65;;;9.60;99.90;;;;;;5073138;28;20055;-59
2022/04/24 01:39:56;;;;;;;17.55;10.57;;;9.60;99.90;;;;;;5072584;28;20016;-56
2022/04/24 01:42:22;;;;;;;18.02;10.60;;;9.60;99.90;;;;;;5072707;28;20024;-59
2022/04/24 01:44:48;;;;;;;20.13;11.13;;;9.60;99.90;;;;;;5072592;28;20074;-58
2022/04/24 01:47:14;;;;;;;17.95;10.77;;;9.60;99.90;;;;;;5072796;28;20070;-60
2022/04/24 01:49:39;;;;;;;18.33;10.57;;;9.60;99.90;;;;;;5072746;28;20021;-58
2022/04/24 01:52:09;;;;;;;21.67;11.18;;;9.50;99.90;;;;;;5072497;28;20034;-59
2022/04/24 01:54:35;;;;;;;19.90;10.45;;;9.40;99.90;;;;;;5072441;28;20093;-60
2022/04/24 01:57:01;;;;;;;19.25;10.27;;;9.40;99.90;;;;;;5072336;28;20423;-61
2022/04/24 01:59:26;;;;;;;18.83;10.48;;;9.30;99.90;;;;;;5072131;28;20029;-59
2022/04/24 02:01:52;;;;;;;17.92;10.15;;;9.40;99.90;;;;;;5072634;28;20066;-59
2022/04/24 02:04:23;;;;;;;18.58;11.98;;;9.30;99.90;;;;;;5071164;28;20039;-59
2022/04/24 02:06:51;;;;;;;17.67;10.50;;;9.30;99.90;;;;;;5072569;28;20103;-60
2022/04/24 02:09:17;;;;;;;19.25;10.35;;;9.30;99.90;;;;;;5072316;28;20021;-59
2022/04/24 02:11:42;;;;;;;19.52;10.52;;;9.30;99.90;;;;;;5070889;28;20128;-61
2022/04/24 02:14:08;;;;;;;17.55;9.90;;;9.30;99.90;;;;;;5071449;28;20032;-62
2022/04/24 02:16:33;;;;;;;16.75;9.88;;;9.30;99.90;;;;;;5071065;28;20024;-60
2022/04/24 02:18:59;;;;;;;21.00;12.05;;;;;;;;;;5072434;28;20024;-58
2022/04/24 02:21:27;;;;;;;17.95;10.15;;;9.20;99.90;;;;;;5072225;28;20392;-57
2022/04/24 02:23:53;;;;;;;17.27;9.90;;;9.20;99.90;;;;;;5070953;28;20070;-59
2022/04/24 02:26:19;;;;;;;19.05;10.13;;;9.10;99.90;;;;;;5072234;28;20020;-59
2022/04/24 02:28:44;;;;;;;16.70;9.15;;;9.10;99.90;;;;;;5070952;28;20024;-61
2022/04/24 02:31:10;;;;;;;17.75;9.75;;;9.10;99.90;;;;;;5072134;28;20024;-61
2022/04/24 02:33:36;;;;;;;16.98;10.07;;;9.10;99.90;;;;;;5070867;28;20044;-57
2022/04/24 02:36:02;;;;;;;28.83;17.05;;;9.10;99.90;;;;;;5071863;28;20036;-61
2022/04/24 02:38:28;;;;;;;23.98;15.05;;;9.00;99.90;;;;;;5071957;28;20040;-60
2022/04/24 02:40:54;;;;;;;21.17;11.32;;;9.10;99.90;;;;;;5071859;28;20021;-61
2022/04/24 02:43:20;;;;;;;20.90;12.45;;;9.10;99.90;;;;;;5072159;28;20025;-60
2022/04/24 02:45:46;;;;;;;18.10;10.50;;;9.00;99.90;;;;;;5071989;28;20053;-61
2022/04/24 02:48:12;;;;;;;18.88;10.40;;;9.00;99.90;;;;;;5071993;28;20111;-60
2022/04/24 02:50:39;;;;;;;18.70;10.23;;;9.20;99.90;;;;;;5070935;28;20115;-61
2022/04/24 02:53:06;;;;;;;19.83;10.20;;;9.10;99.90;;;;;;5071933;28;20086;-61
2022/04/24 02:55:31;;;;;;;17.90;10.18;;;9.10;99.90;;;;;;5072287;28;20496;-59
2022/04/24 02:57:57;;;;;;;19.58;9.95;;;9.10;99.90;;;;;;5071931;28;20030;-57
2022/04/24 03:00:25;;;;;;;17.70;9.82;;;9.00;99.90;;;;;;5071764;28;20025;-59
2022/04/24 03:02:51;;;;;;;18.27;9.27;;;9.00;99.90;;;;;;5071966;28;20021;-58
2022/04/24 03:05:25;;;;;;;16.67;9.30;;;9.00;99.90;;;;;;5071899;28;20013;-55
2022/04/24 03:07:51;;;;;;;18.90;9.63;;;8.90;99.90;;;;;;5071790;28;20039;-58
2022/04/24 03:10:18;;;;;;;18.05;9.55;;;;;;;;;;5071694;28;20036;-59
2022/04/24 03:12:44;;;;;;;18.00;10.05;;;;;;;;;;5071479;28;20032;-55
2022/04/24 03:15:12;;;;;;;15.95;9.00;;;;;;;;;;5071610;28;20104;-61
2022/04/24 03:17:38;;;;;;;20.38;9.25;;;;;;;;;;5071944;28;20570;-56
2022/04/24 03:20:06;;;;;;;17.10;9.43;;;8.90;99.90;;;;;;5071650;28;20060;-58
2022/04/24 03:22:33;;;;;;;17.33;9.38;;;8.70;99.90;;;;;;5070387;28;20021;-61
2022/04/24 03:24:59;;;;;;;19.25;9.68;;;8.70;99.90;;;;;;5072318;28;20091;-60
2022/04/24 03:27:25;;;;;;;17.25;9.35;;;8.70;99.90;;;;;;5074007;28;20024;-57
2022/04/24 03:29:50;;;;;;;17.95;9.10;;;8.70;99.90;;;;;;5075139;28;20027;-62
2022/04/24 03:32:16;;;;;;;18.63;9.75;;;8.70;99.90;;;;;;5075366;28;20054;-60
2022/04/24 03:34:42;;;;;;;17.10;9.05;;;8.60;99.90;;;;;;5075171;28;20131;-59
2022/04/24 03:37:07;;;;;;;16.50;8.70;;;8.60;99.90;;;;;;5075239;28;20104;-60
2022/04/24 03:39:33;;;;;;;16.20;8.85;;;8.50;99.90;;;;;;5075307;28;20392;-63
2022/04/24 03:41:58;;;;;;;17.38;8.80;;;8.50;99.90;;;;;;5075325;28;20020;-58
2022/04/24 03:44:24;;;;;;;17.10;9.07;;;8.50;99.90;;;;;;5073699;28;20541;-62
2022/04/24 03:46:50;;;;;;;16.02;9.27;;;8.50;99.90;;;;;;5075235;28;20029;-61
2022/04/24 03:49:16;;;;;;;17.60;9.10;;;8.50;99.90;;;;;;5073462;28;20374;-60
2022/04/24 03:51:42;;;;;;;15.90;8.90;;;8.40;99.90;;;;;;5074713;28;20032;-59
2022/04/24 03:54:08;;;;;;;19.77;9.32;;;8.40;99.90;;;;;;5073552;28;20491;-61
2022/04/24 03:56:34;;;;;;;18.20;9.93;;;8.30;99.90;;;;;;5074865;28;20025;-60
2022/04/24 03:59:00;;;;;;;16.98;9.32;;;8.30;99.90;;;;;;5075277;28;20025;-60
2022/04/24 04:01:25;;;;;;;17.80;8.77;;;8.30;99.90;;;;;;5075098;28;20039;-59
2022/04/24 04:03:51;;;;;;;16.80;8.95;;;8.30;99.90;;;;;;5074929;28;20435;-59
2022/04/24 04:06:17;;;;;;;16.60;8.77;;;8.30;99.90;;;;;;5075015;28;20065;-61
2022/04/24 04:08:43;;;;;;;18.95;9.50;;;8.30;99.90;;;;;;5074707;28;20103;-58
2022/04/24 04:11:08;;;;;;;19.27;9.32;;;8.20;99.90;;;;;;5074868;28;20029;-61
2022/04/24 04:13:35;;;;;;;17.58;9.25;;;8.20;99.90;;;;;;5074478;28;20035;-61
2022/04/24 04:16:00;;;;;;;16.50;9.00;;;8.10;99.90;;;;;;5074980;28;20055;-59
2022/04/24 04:18:26;;;;;;;22.63;12.38;;;8.10;99.90;;;;;;5073565;28;20048;-59
2022/04/24 04:20:51;;;;;;;19.70;10.38;;;8.10;99.90;;;;;;5074590;28;20044;-62
2022/04/24 04:23:17;;;;;;;20.98;11.52;;;8.20;99.90;;;;;;5074335;28;20031;-61
2022/04/24 04:25:43;;;;;;;20.17;10.63;;;8.10;99.90;;;;;;5074631;28;20095;-61
2022/04/24 04:28:09;;;;;;;18.15;9.43;;;8.20;99.90;;;;;;5074495;28;20025;-61
2022/04/24 04:30:34;;;;;;;19.05;10.75;;;8.10;99.90;;;;;;5074657;28;20020;-59
2022/04/24 04:33:00;;;;;;;17.88;9.75;;;8.20;99.90;;;;;;5073443;28;20029;-59
2022/04/24 04:35:26;;;;;;;19.25;10.07;;;8.20;99.90;;;;;;5073767;28;20029;-59
2022/04/24 04:37:52;;;;;;;17.63;9.65;;;8.20;99.90;;;;;;5072677;28;20481;-60
2022/04/24 04:40:18;;;;;;;17.17;9.32;;;8.20;99.90;;;;;;5073769;28;20060;-57
2022/04/24 04:42:45;;;;;;;16.20;8.57;;;8.20;99.90;;;;;;5073796;28;20048;-57
2022/04/24 04:45:10;;;;;;;17.08;8.93;;;8.20;99.90;;;;;;5072468;28;20043;-59
2022/04/24 04:47:36;;;;;;;19.00;9.70;;;8.30;99.90;;;;;;5073951;28;20103;-57
2022/04/24 04:50:02;;;;;;;19.02;9.40;;;8.40;99.90;;;;;;5073833;28;20032;-60
2022/04/24 04:52:28;;;;;;;17.80;9.30;;;8.60;99.90;;;;;;5073570;28;20020;-58
2022/04/24 04:54:54;;;;;;;17.30;9.50;;;8.60;99.90;;;;;;5073667;28;20024;-57
2022/04/24 04:57:19;;;;;;;18.60;9.55;;;8.70;99.90;;;;;;5073651;28;20396;-58
2022/04/24 04:59:45;;;;;;;18.17;9.77;;;8.70;99.90;;;;;;5073576;28;20095;-60
2022/04/24 05:02:10;;;;;;;19.15;10.23;;;8.70;99.90;;;;;;5072282;28;20082;-60
2022/04/24 05:04:36;;;;;;;16.58;9.07;;;8.70;99.90;;;;;;5072267;28;20027;-59
2022/04/24 05:07:02;;;;;;;19.88;9.55;;;8.60;99.90;;;;;;5073596;28;20051;-58
2022/04/24 05:09:27;;;;;;;18.00;9.38;;;8.70;99.90;;;;;;5072175;28;20024;-58
2022/04/24 05:11:53;;;;;;;16.80;9.20;;;8.60;99.90;;;;;;5073141;28;20116;-58
2022/04/24 05:14:19;;;;;;;17.38;9.88;;;8.60;99.90;;;;;;5073568;28;20025;-59
2022/04/24 05:16:45;;;;;;;19.58;11.27;;;8.60;99.90;;;;;;5073321;28;20107;-59
2022/04/24 05:19:10;;;;;;;20.45;12.75;;;8.70;99.90;;;;;;5073172;28;20666;-58
2022/04/24 05:21:36;;;;;;;16.35;8.93;;;8.70;99.90;;;;;;5072969;28;20028;-61
2022/04/24 05:24:02;;;;;;;16.55;9.25;;;8.70;99.90;;;;;;5072910;28;20492;-61
2022/04/24 05:26:27;;;;;;;16.48;9.18;;;8.70;99.90;;;;;;5072111;28;20070;-61
2022/04/24 05:28:53;;;;;;;16.65;9.32;;;8.80;99.90;;;;;;5072808;28;20096;-60
2022/04/24 05:31:21;;;;;;;17.42;10.20;;;8.80;99.90;;;;;;5073049;28;20035;-60
2022/04/24 05:33:47;;;;;;;17.48;9.23;;;8.80;99.90;;;;;;5071846;28;20028;-60
2022/04/24 05:36:13;;;;;;;16.10;9.23;;;9.00;99.90;;;;;;5072799;28;20116;-59
2022/04/24 05:38:38;;;;;;;20.13;9.80;;;9.00;99.90;;;;;;5072820;28;20036;-60
2022/04/24 05:41:04;;;;;;;19.23;9.25;;;9.00;99.90;;;;;;5071446;28;20024;-62
2022/04/24 05:43:30;;;;;;;16.45;9.13;;;9.00;99.90;;;;;;5073064;28;20028;-59
2022/04/24 05:45:56;;;;;;;16.48;8.93;;;9.10;99.90;;;;;;5071835;28;20052;-60
2022/04/24 05:48:22;;;;;;;16.77;9.77;;;9.10;99.90;;;;;;5072429;28;20093;-59
2022/04/24 05:50:48;;;;;;;17.52;9.63;;;9.10;99.90;;;;;;5073112;28;20028;-61
2022/04/24 05:53:14;;;;;;;17.45;9.73;;;9.10;99.90;;;;;;5072853;28;20039;-59
2022/04/24 05:55:40;;;;;;;18.48;9.05;;;9.20;99.90;;;;;;5073134;28;20024;-60
2022/04/24 05:58:06;;;;;;;17.50;9.15;;;9.30;99.90;;;;;;5072017;28;20031;-58
2022/04/24 06:00:32;;;;;;;18.48;9.85;;;9.30;99.90;;;;;;5072765;28;20025;-60
2022/04/24 06:02:57;;;;;;;19.08;10.30;;;9.30;99.90;;;;;;5072348;28;20024;-60
2022/04/24 06:05:23;;;;;;;17.65;9.20;;;9.40;99.90;;;;;;5072234;28;20021;-59
2022/04/24 06:07:49;;;;;;;17.70;9.40;;;9.40;99.90;;;;;;5071040;28;20500;-59
2022/04/24 06:10:15;;;;;;;16.10;9.35;;;9.50;99.90;;;;;;5072149;28;20054;-60
2022/04/24 06:12:50;;;;;;;16.52;9.65;;;9.60;99.90;;;;;;5072446;28;20552;-57
2022/04/24 06:15:20;;;;;;;17.38;9.45;;;9.60;99.90;;;;;;5072347;28;20033;-59
2022/04/24 06:17:47;;;;;;;17.48;9.68;;;9.60;99.90;;;;;;5072393;28;20038;-60
2022/04/24 06:20:13;;;;;;;16.50;9.32;;;9.60;99.90;;;;;;5072071;28;20028;-60
2022/04/24 06:22:48;;;;;;;18.88;9.60;;;9.70;99.90;;;;;;5072231;28;20047;-62
2022/04/24 06:25:18;;;;;;;17.17;9.38;;;9.80;99.90;;;;;;5072303;28;20377;-60
2022/04/24 06:27:45;;;;;;;17.95;9.50;;;9.80;99.90;;;;;;5072273;28;20017;-59
2022/04/24 06:30:12;;;;;;;22.77;9.43;;;9.90;99.90;;;;;;5072023;28;20082;-61
2022/04/24 06:32:42;;;;;;;18.73;9.23;;;9.90;99.90;;;;;;5072276;28;20103;-59
2022/04/24 06:35:09;;;;;;;19.08;9.68;;;9.90;99.90;;;;;;5072076;28;20031;-61
2022/04/24 06:37:39;;;;;;;16.57;9.50;;;10.00;99.90;;;;;;5072396;28;20067;-61
2022/04/24 06:40:07;;;;;;;19.25;9.90;;;10.10;99.90;;;;;;5072141;28;20025;-60
2022/04/24 06:42:33;;;;;;;17.00;9.23;;;10.20;99.90;;;;;;5072183;28;20029;-59
2022/04/24 06:44:59;;;;;;;19.10;10.43;;;10.20;99.90;;;;;;5071924;28;20514;-59
2022/04/24 06:47:27;;;;;;;18.00;10.65;;;10.30;99.90;;;;;;5054937;28;20061;-61
2022/04/24 06:49:53;;;;;;;17.90;9.70;;;10.30;99.90;;;;;;5056894;28;20024;-61
2022/04/24 06:52:19;;;;;;;16.45;10.38;;;10.30;99.90;;;;;;5061070;28;20033;-58
2022/04/24 06:54:45;;;;;;;19.33;9.95;;;10.40;99.90;;;;;;5057746;28;20083;-62
2022/04/24 06:57:10;;;;;;;19.52;10.68;;;10.40;99.90;;;;;;5058570;28;20025;-61
2022/04/24 06:59:36;;;;;;;17.30;9.32;;;10.50;99.90;;;;;;5060923;28;20029;-61
2022/04/24 07:02:02;;;;;;;18.30;10.18;;;10.50;99.90;;;;;;5062766;28;20021;-61
2022/04/24 07:04:27;;;;;;;17.45;10.02;;;10.60;99.90;;;;;;5067547;28;20075;-61
2022/04/24 07:06:53;;;;;;;17.35;9.50;;;10.70;99.90;;;;;;5067045;28;20028;-56
2022/04/24 07:09:18;;;;;;;19.30;10.95;;;10.80;99.90;;;;;;5064396;28;20032;-62
2022/04/24 07:11:44;;;;;;;16.67;9.85;;;10.80;99.90;;;;;;5065287;28;20052;-59
2022/04/24 07:14:10;;;;;;;17.65;9.90;;;10.90;99.90;;;;;;5063956;28;20692;-57
2022/04/24 07:16:35;;;;;;;24.30;11.15;;;11.00;99.90;;;;;;5067010;28;20040;-57
2022/04/24 07:19:01;;;;;;;17.83;10.55;;;11.00;99.90;;;;;;5065934;28;20017;-57
2022/04/24 07:23:55;;;;;;;16.77;9.80;;;11.10;99.90;;;;;;5010079;28;20042;-62
2022/04/24 07:26:20;;;;;;;21.83;10.93;;;11.10;99.90;;;;;;5010952;28;20073;-62
2022/04/24 07:28:46;;;;;;;16.85;10.00;;;11.30;99.90;;;;;;5000039;28;20022;-62
2022/04/24 07:31:14;;;;;;;16.88;10.27;;;11.40;99.90;;;;;;4994585;28;20145;-62
2022/04/24 07:33:40;;;;;;;19.33;11.65;;;11.40;99.90;;;;;;5006620;28;20445;-60
2022/04/24 07:36:06;;;;;;;18.45;10.80;;;11.40;99.90;;;;;;5015193;28;20029;-62
2022/04/24 07:38:32;;;;;;;18.98;10.60;;;11.50;99.90;;;;;;5013895;28;20026;-62
2022/04/24 07:40:59;;;;;;;16.88;10.07;;;11.60;99.90;;;;;;5014797;28;20026;-63
2022/04/24 07:43:25;;;;;;;19.15;10.63;;;11.60;99.90;;;;;;4994202;28;20211;-60
2022/04/24 07:45:50;;;;;;;20.67;11.48;;;11.70;99.90;;;;;;4994715;28;20061;-62
2022/04/24 07:48:18;;;;;;;19.02;10.60;;;11.80;99.90;;;;;;4995496;28;20033;-62
2022/04/24 07:50:49;;;;;;;19.50;11.47;;;11.80;99.90;;;;;;4995695;28;20030;-60
2022/04/24 07:53:16;;;;;;;18.65;11.38;;;11.90;99.90;;;;;;4995719;28;20101;-60
2022/04/24 07:55:46;;;;;;;18.17;10.35;;;12.00;99.90;;;;;;4995211;28;20514;-63
2022/04/24 07:58:13;;;;;;;18.00;10.93;;;12.20;99.90;;;;;;4995429;28;20034;-62
2022/04/24 08:00:39;;;;;;;17.88;11.05;;;12.20;99.90;;;;;;4995256;28;20025;-63
2022/04/24 08:03:07;;;;;;;19.85;11.23;;;12.30;99.90;;;;;;4994052;28;20029;-60
2022/04/24 08:05:42;;;;;;;20.08;11.70;;;12.50;99.90;;;;;;5007166;28;20022;-60
2022/04/24 08:08:17;;;;;;;19.73;11.73;;;12.50;99.90;;;;;;5014721;28;20040;-61
2022/04/24 08:10:47;;;;;;;17.92;11.18;;;12.60;99.90;;;;;;5002134;28;20487;-59
2022/04/24 08:13:13;;;;;;;18.90;11.35;;;12.70;99.90;;;;;;5000845;28;20042;-63
2022/04/24 08:15:39;;;;;;;20.25;11.75;;;12.80;99.90;;;;;;5003170;28;20027;-62
2022/04/24 08:18:05;;;;;;;21.52;13.40;;;12.90;99.90;;;;;;5003137;28;20032;-63
2022/04/24 08:20:32;;;;;;;19.15;12.43;;;12.90;99.90;;;;;;5007760;28;20037;-65
2022/04/24 08:23:05;;;;;;;21.25;11.98;;;13.00;99.90;;;;;;5012820;28;20076;-63
2022/04/24 08:25:34;;;;;;;17.67;12.00;;;13.00;99.90;;;;;;5019062;28;20022;-62
2022/04/24 08:28:02;;;;;;;20.95;13.02;;;13.10;99.90;;;;;;5012514;28;20018;-57
2022/04/24 08:30:28;;;;;;;21.35;13.05;;;13.20;99.90;;;;;;5002197;28;20022;-61
2022/04/24 08:32:54;;;;;;;19.67;12.60;;;;;;;;;;4996815;28;20030;-59
2022/04/24 08:35:21;;;;;;;20.95;12.10;;;;;;;;;;5001472;28;20073;-58
2022/04/24 08:37:48;;;;;;;21.13;11.68;;;;;;;;;;4999657;28;20034;-58
2022/04/24 08:40:15;;;;;;;19.85;12.00;;;;;;;;;;5001504;28;20030;-56
2022/04/24 08:42:41;;;;;;;19.08;12.35;;;;;;;;;;5002038;28;20062;-58
2022/04/24 08:45:16;;;;;;;19.63;12.05;;;;;;;;;;5002926;28;20053;-59
2022/04/24 08:47:43;;;;;;;18.42;11.93;;;13.30;99.80;;;;;;4995945;28;20050;-61
2022/04/24 08:50:10;;;;;;;18.30;11.68;;;14.00;98.90;;;;;;4649488;28;10000387;-61
2022/04/24 08:52:36;;;;;;;23.23;11.65;;;14.00;98.30;;;;;;5000691;28;20032;-59
2022/04/24 08:55:03;;;;;;;19.52;12.05;;;14.00;98.30;;;;;;5006809;28;20030;-60
2022/04/24 08:57:30;;;;;;;19.83;11.68;;;14.20;97.80;;;;;;5007505;28;20450;-60
2022/04/24 08:59:57;;;;;;;18.27;11.80;;;14.30;97.30;;;;;;4996085;28;20034;-60
2022/04/24 09:02:23;;;;;;;18.67;11.57;;;14.30;97.20;;;;;;4989596;28;20121;-59
2022/04/24 09:04:49;;;;;;;20.88;12.65;;;14.40;97.40;;;;;;4989429;28;20089;-61
2022/04/24 09:07:18;;;;;;;19.48;11.75;;;14.50;96.40;;;;;;5001303;28;20025;-57
2022/04/24 09:09:44;;;;;;;;;;;;;;;;;;5006850;28;20030;-60
2022/04/24 09:12:14;;;;;;;19.23;11.13;;;;;;;;;;4990309;28;19906;-61
2022/04/24 09:14:41;;;;;;;19.35;12.48;;;14.70;97.00;;;;;;5008269;28;20045;-61
2022/04/24 09:17:15;;;;;;;19.73;12.02;;;15.00;96.20;;;;;;5009740;28;20703;-60
2022/04/24 09:19:40;;;;;;;18.90;11.38;;;15.20;96.10;;;;;;5010527;28;20509;-63
2022/04/24 09:22:09;;;;;;;18.48;11.35;;;15.20;96.00;;;;;;5009194;28;20065;-63
2022/04/24 09:24:41;;;;;;;;;;;15.20;95.20;;;;;;4996507;28;20018;-62
2022/04/24 09:27:07;;;;;;;18.38;11.32;;;15.30;95.00;;;;;;4990932;28;20350;-62
2022/04/24 09:29:33;;;;;;;18.98;11.55;;;15.50;95.60;;;;;;4988901;28;20686;-63
2022/04/24 09:31:59;;;;;;;18.58;11.40;;;15.60;94.90;;;;;;4989038;28;20037;-61
2022/04/24 09:34:33;;;;;;;19.83;11.77;;;15.50;94.20;;;;;;4989895;28;20035;-62
2022/04/24 09:37:00;;;;;;;18.58;12.52;;;15.40;94.00;;;;;;4990242;28;20030;-63
2022/04/24 09:39:30;;;;;;;19.20;11.10;;;;;;;;;;4990359;28;20088;-63
2022/04/24 09:42:09;;;;;;;19.23;12.38;;;;;;;;;;4990343;28;20576;-61
2022/04/24 09:44:45;;;;;;;18.85;12.15;;;;;;;;;;4989939;28;20053;-59
2022/04/24 09:47:11;;;;;;;18.38;11.82;;;;;;;;;;4989991;28;20029;-62
2022/04/24 09:49:41;;;;;;;20.52;12.15;;;;;;;;;;4996521;28;20117;-64
2022/04/24 09:52:10;;;;;;;19.42;12.02;;;;;;;;;;5009633;28;20022;-61
2022/04/24 09:54:38;;;;;;;17.85;12.30;;;;;;;;;;5007766;28;20033;-62
2022/04/24 09:57:04;;;;;;;19.35;11.73;;;;;;;;;;5009289;28;20044;-62
2022/04/24 09:59:30;;;;;;;19.70;11.55;;;;;;;;;;5008094;28;20029;-62
2022/04/24 10:01:57;;;;;;;19.92;11.82;;;;;;;;;;5009203;28;20055;-62
2022/04/24 10:04:23;;;;;;;20.60;11.68;;;15.60;94.30;;;;;;5009336;28;20470;-63
2022/04/24 10:06:49;;;;;;;21.48;12.23;;;16.20;93.00;;;;;;5011082;28;20398;-63
2022/04/24 10:09:17;;;;;;;17.77;11.43;;;16.10;92.20;;;;;;5011692;28;20080;-61
2022/04/24 10:11:43;;;;;;;18.05;11.65;;;;;;;;;;5012427;28;20038;-63
2022/04/24 10:14:12;;;;;;;18.95;11.50;;;;;;;;;;5012267;28;20029;-63
2022/04/24 10:16:47;;;;;;;19.42;11.77;;;;;;;;;;5012250;28;20406;-61
2022/04/24 10:19:13;;;;;;;18.92;12.13;;;;;;;;;;5010559;28;20109;-62
2022/04/24 10:22:08;;;;;;;19.92;11.65;;;16.30;92.50;;;;;;4999779;28;20034;-61
2022/04/24 10:24:44;;;;;;;17.58;11.77;;;16.70;91.80;;;;;;4992353;28;20030;-60
2022/04/24 10:27:11;;;;;;;18.33;11.18;;;16.80;91.10;;;;;;4992531;28;20026;-60
2022/04/24 10:29:59;;;;;;;21.27;12.02;;;17.00;91.60;;;;;;4992491;28;20054;-61
2022/04/24 10:32:32;;;;;;;18.42;11.70;;;17.00;90.50;;;;;;4992530;28;20028;-61
2022/04/24 10:34:59;;;;;;;18.05;12.00;;;17.10;90.70;;;;;;4991304;28;20041;-60
2022/04/24 10:37:29;;;;;;;19.15;11.77;;;;;;;;;;4991334;28;20606;-60
2022/04/24 10:40:00;;;;;;;18.67;11.80;;;17.30;90.90;;;;;;5000259;28;20026;-60
2022/04/24 10:42:36;;;;;;;19.48;12.55;;;17.30;89.80;;;;;;5011896;28;20029;-62
2022/04/24 10:45:07;;;;;;;20.63;12.23;;;17.40;90.10;;;;;;4990545;28;20027;-64
2022/04/24 10:47:45;;;;;;;19.77;12.20;;;17.50;90.40;;;;;;4990913;28;20390;-62
2022/04/24 10:50:11;;;;;;;18.85;12.48;;;17.60;90.50;;;;;;4998518;28;20037;-58
2022/04/24 10:52:44;;;;;;;18.60;11.43;;;17.50;88.80;;;;;;5011152;28;20037;-61
2022/04/24 10:55:13;;;;;;;19.80;11.95;;;17.50;89.10;;;;;;5009420;28;20061;-60
2022/04/24 10:57:48;;;;;;;20.40;13.15;;;17.50;89.10;;;;;;5010962;28;20022;-65
2022/04/24 11:00:19;;;;;;;19.90;12.10;;;17.50;90.20;;;;;;5010979;28;20643;-63
2022/04/24 11:02:46;;;;;;;19.05;12.80;;;;;;;;;;5010070;28;20022;-61
2022/04/24 11:05:18;;;;;;;19.13;11.95;;;17.80;87.80;;;;;;5010135;28;20098;-62
2022/04/24 11:07:44;;;;;;;19.33;12.02;;;17.90;88.00;;;;;;5011383;28;20022;-62
2022/04/24 11:10:11;;;;;;;18.00;11.73;;;18.20;87.30;;;;;;5010366;28;20033;-63
2022/04/24 11:12:38;;;;;;;19.10;11.77;;;19.10;87.00;;;;;;5010167;28;20149;-63
2022/04/24 11:15:09;;;;;;;21.10;11.85;;;19.90;83.80;;;;;;5011092;28;20467;-63
2022/04/24 11:17:36;;;;;;;17.50;11.57;;;20.40;82.60;;;;;;5009589;28;20030;-61
2022/04/24 11:20:08;;;;;;;17.58;12.25;;;20.90;81.20;;;;;;5010728;28;20054;-62
2022/04/24 11:22:50;;;;;;;23.17;14.27;;;21.10;78.90;;;;;;5009160;28;20398;-63
2022/04/24 11:25:19;;;;;;;18.85;12.18;;;21.40;78.20;;;;;;5009199;28;20026;-61
2022/04/24 11:27:49;;;;;;;18.10;12.50;;;21.60;77.30;;;;;;5010540;28;20471;-60
2022/04/24 11:30:16;;;;;;;22.35;12.60;;;22.40;76.80;;;;;;5010377;28;20486;-64
2022/04/24 11:32:53;;;;;;;20.42;13.20;;;23.10;74.20;;;;;;5011560;28;20033;-63
2022/04/24 11:35:18;;;;;;;18.63;12.95;;;22.80;71.30;;;;;;5016381;28;20030;-60
2022/04/24 11:37:44;;;;;;;19.73;13.90;;;23.20;70.10;;;;;;5010870;28;20030;-60
2022/04/24 11:40:10;;;;;;;18.50;13.15;;;23.70;70.00;;;;;;5010180;28;20033;-62
2022/04/24 11:42:35;;;;;;;17.73;12.40;;;23.80;69.40;;;;;;5007402;28;20580;-62
2022/04/24 11:50:51;;;;;;;20.27;13.48;;;24.40;65.40;;;;;;5013689;28;20091;-62
2022/04/24 11:53:18;;;;;;;19.05;13.50;;;;;;;;;;5013876;28;20037;-60
2022/04/24 11:56:05;;;;;;;18.55;12.60;;;24.80;63.70;;;;;;5012865;28;20049;-60
2022/04/24 11:58:35;;;;;;;18.63;12.57;;;25.60;63.20;;;;;;5000425;28;20117;-61
2022/04/24 12:01:02;;;;;;;19.42;12.40;;;24.70;61.40;;;;;;4999026;28;20033;-60
2022/04/24 12:03:43;;;;;;;18.58;12.65;;;24.70;60.80;;;;;;4670776;28;10001060;-63
2022/04/24 12:06:11;;;;;;;23.15;12.32;;;24.70;62.30;;;;;;5001792;28;20244;-63
2022/04/24 12:08:45;;;;;;;17.38;13.05;;;25.20;61.20;;;;;;4996988;28;20110;-62
2022/04/24 12:11:27;;;;;;;18.30;12.77;;;25.60;60.00;;;;;;4998559;28;20112;-61
2022/04/24 12:14:04;;;;;;;19.13;12.90;;;26.10;59.60;;;;;;5001245;28;20038;-62
2022/04/24 12:16:30;;;;;;;17.38;13.27;;;26.70;58.90;;;;;;5001617;28;20022;-62
2022/04/24 12:18:57;;;;;;;17.15;12.48;;;26.10;58.00;;;;;;5001074;28;20018;-59
2022/04/24 12:21:23;;;;;;;19.13;13.48;;;26.00;57.10;;;;;;4992417;28;20106;-60
2022/04/24 12:23:51;;;;;;;24.50;16.30;;;25.70;56.70;;;;;;4992735;28;20038;-60
2022/04/24 12:26:17;;;;;;;19.13;14.02;;;25.80;57.40;;;;;;5013029;28;20136;-59
2022/04/24 12:28:42;;;;;;;19.23;13.88;;;26.10;56.40;;;;;;5012444;28;20182;-59
2022/04/24 12:31:19;;;;;;;20.17;14.90;;;27.30;57.10;;;;;;5012449;28;20366;-61
2022/04/24 12:33:51;;;;;;;19.17;12.95;;;25.80;55.30;;;;;;5013107;28;20099;-63
2022/04/24 12:36:16;;;;;;;20.00;12.93;;;25.70;55.50;;;;;;4996015;28;20026;-64
2022/04/24 12:38:56;;;;;;;17.90;12.35;;;26.10;56.30;;;;;;4993961;28;20037;-62
2022/04/24 12:41:26;;;;;;;18.13;13.15;;;;;;;;;;5010835;28;20100;-62
2022/04/24 12:43:53;;;;;;;17.45;13.25;;;;;;;;;;4663995;28;10000302;-63
2022/04/24 12:46:19;;;;;;;16.52;12.18;;;;;;;;;;5007746;28;20046;-63
2022/04/24 12:48:49;;;;;;;20.38;12.88;;;;;;;;;;5012257;28;20739;-64
2022/04/24 12:51:16;;;;;;;18.50;12.07;;;26.20;55.10;;;;;;5009423;28;20766;-64
2022/04/24 12:53:41;;;;;;;18.80;12.60;;;24.60;55.90;;;;;;5009773;28;20486;-63
2022/04/24 12:56:07;;;;;;;19.40;13.20;;;24.20;55.40;;;;;;4996759;28;20065;-63